createdAt,value
2019-05-23T00:01:12.822Z,14.55
2019-05-23T00:04:25.501Z,14.50
2019-05-23T00:07:18.006Z,14.52
2019-05-23T00:10:08.986Z,14.53
2019-05-23T00:13:10.342Z,14.52
2019-05-23T00:15:47.360Z,14.40
2019-05-23T00:18:21.506Z,14.34
2019-05-23T00:20:53.817Z,14.34
2019-05-23T00:23:25.792Z,14.27
2019-05-23T00:25:57.753Z,14.18
2019-05-23T00:28:29.818Z,14.19
2019-05-23T00:31:12.479Z,14.26
2019-05-23T00:33:44.369Z,14.15
2019-05-23T00:36:17.629Z,14.15
2019-05-23T00:38:50.183Z,14.22
2019-05-23T00:41:24.029Z,14.22
2019-05-23T00:43:56.428Z,14.15
2019-05-23T00:46:29.341Z,14.25
2019-05-23T00:49:01.735Z,14.11
2019-05-23T00:51:35.392Z,14.16
2019-05-23T00:54:09.301Z,14.19
2019-05-23T00:56:42.100Z,14.09
2019-05-23T00:59:26.480Z,14.12
2019-05-23T01:01:49.511Z,14.24
2019-05-23T01:04:22.239Z,14.20
2019-05-23T01:06:54.226Z,14.20
2019-05-23T01:09:26.930Z,14.22
2019-05-23T01:11:59.999Z,14.00
2019-05-23T01:14:32.653Z,14.13
2019-05-23T01:17:07.508Z,14.20
2019-05-23T01:19:40.380Z,14.05
2019-05-23T01:22:12.744Z,14.03
2019-05-23T01:24:46.830Z,14.05
2019-05-23T01:27:19.935Z,14.10
2019-05-23T01:29:53.593Z,14.03
2019-05-23T01:32:39.313Z,14.10
2019-05-23T01:35:13.734Z,14.18
2019-05-23T01:37:47.603Z,14.33
2019-05-23T01:40:20.139Z,14.26
2019-05-23T01:42:53.440Z,14.23
2019-05-23T01:45:25.242Z,14.28
2019-05-23T01:47:58.269Z,14.34
2019-05-23T01:50:30.628Z,14.17
2019-05-23T01:53:03.078Z,13.97
2019-05-23T01:55:35.308Z,13.90
2019-05-23T01:58:07.692Z,13.79
2019-05-23T02:00:40.344Z,13.69
2019-05-23T02:03:12.799Z,13.76
2019-05-23T02:05:45.208Z,13.71
2019-05-23T02:08:18.370Z,13.73
2019-05-23T02:10:50.241Z,13.74
2019-05-23T02:13:23.285Z,13.76
2019-05-23T02:15:55.152Z,13.72
2019-05-23T02:18:28.501Z,13.88
2019-05-23T02:21:00.544Z,13.86
2019-05-23T02:23:32.487Z,13.86
2019-05-23T02:26:04.919Z,13.78
2019-05-23T02:28:37.252Z,13.71
2019-05-23T02:31:09.635Z,13.73
2019-05-23T02:33:41.861Z,13.58
2019-05-23T02:36:13.824Z,13.42
2019-05-23T02:38:55.620Z,13.36
2019-05-23T02:41:49.229Z,13.38
2019-05-23T02:44:23.141Z,13.39
2019-05-23T02:47:05.193Z,13.40
2019-05-23T02:49:37.845Z,13.31
2019-05-23T02:52:23.394Z,13.33
2019-05-23T02:54:57.095Z,13.39
2019-05-23T02:57:30.582Z,13.37
2019-05-23T03:00:27.134Z,13.33
2019-05-23T03:03:02.833Z,13.35
2019-05-23T03:05:37.517Z,13.33
2019-05-23T03:08:12.770Z,13.38
2019-05-23T03:11:09.885Z,13.45
2019-05-23T03:13:41.961Z,13.53
2019-05-23T03:16:19.659Z,13.48
2019-05-23T03:18:58.158Z,13.55
2019-05-23T03:21:31.056Z,13.90
2019-05-23T03:24:04.780Z,13.78
2019-05-23T03:27:00.587Z,13.71
2019-05-23T03:29:34.652Z,13.77
2019-05-23T03:32:36.901Z,13.94
2019-05-23T03:35:30.634Z,13.93
2019-05-23T03:38:03.898Z,13.86
2019-05-23T03:40:36.636Z,13.57
2019-05-23T03:43:09.562Z,13.58
2019-05-23T03:45:47.748Z,13.54
2019-05-23T03:48:20.862Z,13.56
2019-05-23T03:50:55.107Z,13.53
2019-05-23T03:53:28.865Z,13.37
2019-05-23T03:56:01.423Z,13.48
2019-05-23T03:58:33.706Z,13.39
2019-05-23T04:01:07.979Z,13.57
2019-05-23T04:03:40.731Z,13.47
2019-05-23T04:06:14.013Z,13.49
2019-05-23T04:08:45.876Z,13.51
2019-05-23T04:11:18.017Z,13.47
2019-05-23T04:13:50.012Z,13.50
2019-05-23T04:16:23.054Z,13.54
2019-05-23T04:18:55.896Z,13.47
2019-05-23T04:21:27.747Z,13.47
2019-05-23T04:23:59.551Z,13.45
2019-05-23T04:26:31.343Z,13.45
2019-05-23T04:29:03.175Z,13.53
2019-05-23T04:31:35.325Z,13.44
2019-05-23T04:34:07.151Z,13.53
2019-05-23T04:36:38.935Z,13.43
2019-05-23T04:39:10.926Z,13.34
2019-05-23T04:41:42.903Z,13.38
2019-05-23T04:44:15.505Z,13.49
2019-05-23T04:46:47.385Z,13.49
2019-05-23T04:49:19.361Z,13.49
2019-05-23T04:51:51.593Z,13.52
2019-05-23T04:54:23.660Z,13.53
2019-05-23T04:56:56.601Z,13.53
2019-05-23T04:59:28.472Z,13.65
2019-05-23T05:02:00.849Z,13.53
2019-05-23T05:04:32.860Z,13.58
2019-05-23T05:07:05.097Z,13.64
2019-05-23T05:09:37.193Z,13.69
2019-05-23T05:12:09.549Z,13.65
2019-05-23T05:14:41.351Z,13.75
2019-05-23T05:17:13.606Z,13.68
2019-05-23T05:19:45.481Z,13.82
2019-05-23T05:22:17.016Z,13.81
2019-05-23T05:24:48.850Z,13.85
2019-05-23T05:27:21.241Z,13.84
2019-05-23T05:29:53.180Z,13.85
2019-05-23T05:32:42.883Z,13.94
2019-05-23T05:34:58.810Z,13.94
2019-05-23T05:37:30.679Z,13.99
2019-05-23T05:40:02.889Z,14.00
2019-05-23T05:42:36.173Z,13.93
2019-05-23T05:45:09.341Z,13.94
2019-05-23T05:47:41.526Z,13.88
2019-05-23T05:50:14.944Z,13.97
2019-05-23T05:52:46.821Z,13.92
2019-05-23T05:55:18.889Z,13.73
2019-05-23T05:57:50.757Z,13.73
2019-05-23T06:00:48.017Z,13.84
2019-05-23T06:03:19.941Z,13.90
2019-05-23T06:06:15.710Z,13.80
2019-05-23T06:08:49.805Z,13.89
2019-05-23T06:11:21.719Z,13.96
2019-05-23T06:13:54.184Z,13.93
2019-05-23T06:16:26.339Z,14.00
2019-05-23T06:18:59.443Z,14.13
2019-05-23T06:21:31.322Z,14.19
2019-05-23T06:24:03.652Z,13.93
2019-05-23T06:26:35.455Z,13.95
2019-05-23T06:29:07.347Z,13.86
2019-05-23T06:31:40.173Z,13.81
2019-05-23T06:34:12.964Z,13.99
2019-05-23T06:36:44.931Z,13.84
2019-05-23T06:39:16.841Z,13.78
2019-05-23T06:41:48.892Z,13.85
2019-05-23T06:44:20.935Z,13.87
2019-05-23T06:46:52.810Z,13.95
2019-05-23T06:49:24.684Z,14.10
2019-05-23T06:51:56.542Z,14.24
2019-05-23T06:54:28.478Z,14.38
2019-05-23T06:57:00.582Z,14.35
2019-05-23T06:59:32.482Z,14.56
2019-05-23T07:02:05.575Z,14.60
2019-05-23T07:04:37.559Z,14.76
2019-05-23T07:07:11.528Z,14.79
2019-05-23T07:09:43.370Z,14.71
2019-05-23T07:12:15.535Z,14.78
2019-05-23T07:14:47.497Z,14.72
2019-05-23T07:17:19.820Z,14.68
2019-05-23T07:19:51.764Z,14.77
2019-05-23T07:22:23.968Z,14.85
2019-05-23T07:24:58.526Z,14.85
2019-05-23T13:10:05.166Z,19.41
2019-05-23T13:12:37.500Z,19.53
2019-05-23T13:15:09.649Z,19.37
2019-05-23T13:17:41.453Z,19.54
2019-05-23T13:20:13.820Z,19.29
2019-05-23T13:22:45.675Z,19.64
2019-05-23T13:25:17.917Z,19.89
2019-05-23T13:27:49.762Z,20.05
2019-05-23T13:30:21.829Z,20.26
2019-05-23T13:32:53.813Z,20.13
2019-05-23T13:35:26.362Z,19.74
2019-05-23T13:37:58.371Z,19.79
2019-05-23T13:40:30.225Z,19.90
2019-05-23T13:43:06.798Z,19.54
2019-05-23T13:45:35.812Z,19.41
2019-05-23T13:48:07.673Z,19.41
2019-05-23T13:50:39.941Z,19.40
2019-05-23T13:53:12.763Z,19.39
2019-05-23T18:53:07.519Z,17.67
2019-05-23T18:55:40.258Z,17.67
2019-05-23T18:58:12.233Z,17.70
2019-05-23T19:01:14.216Z,17.58
2019-05-23T19:03:46.364Z,17.53
2019-05-23T19:06:18.282Z,17.52
2019-05-23T19:08:51.034Z,17.53
2019-05-23T19:11:23.307Z,17.50
2019-05-23T19:13:55.208Z,17.40
2019-05-23T19:16:28.636Z,17.37
2019-05-23T19:19:01.351Z,17.35
2019-05-23T19:21:34.185Z,17.28
2019-05-23T19:24:06.470Z,17.23
2019-05-23T19:26:39.328Z,17.13
2019-05-23T19:29:11.302Z,17.02
2019-05-23T19:31:44.096Z,16.97
2019-05-23T19:34:16.464Z,17.00
2019-05-23T19:36:49.382Z,17.00
2019-05-23T19:39:22.490Z,17.01
2019-05-23T19:41:54.449Z,17.00
2019-05-23T19:44:26.372Z,16.99
2019-05-23T19:46:58.269Z,16.99
2019-05-23T19:49:30.180Z,16.92
2019-05-23T19:52:01.971Z,16.81
2019-05-23T19:54:33.808Z,16.83
2019-05-23T19:57:05.619Z,16.67
2019-05-23T19:59:37.481Z,16.69
2019-05-23T20:02:24.785Z,16.72
2019-05-23T20:05:05.742Z,16.77
2019-05-23T20:07:37.837Z,16.87
2019-05-23T20:10:11.115Z,16.88
2019-05-23T20:12:45.343Z,16.96
2019-05-23T20:15:17.297Z,17.00
2019-05-23T20:17:51.651Z,17.02
2019-05-23T20:20:23.115Z,17.00
2019-05-23T20:22:55.073Z,16.98
2019-05-23T20:25:27.115Z,16.94
2019-05-23T20:27:58.907Z,16.87
2019-05-23T20:30:51.643Z,16.92
2019-05-23T20:33:23.611Z,16.86
2019-05-23T20:35:55.507Z,16.88
2019-05-23T20:38:27.765Z,16.86
2019-05-23T20:40:59.724Z,16.88
2019-05-23T20:43:31.596Z,16.88
2019-05-23T20:46:03.445Z,16.86
2019-05-23T20:48:35.629Z,16.84
2019-05-23T20:51:07.582Z,16.80
2019-05-23T20:53:39.716Z,16.78
2019-05-23T20:56:11.568Z,16.79
2019-05-23T20:58:43.417Z,16.78
2019-05-23T21:01:29.818Z,16.67
2019-05-23T21:04:02.624Z,16.56
2019-05-23T21:06:34.629Z,16.44
2019-05-23T21:09:08.145Z,16.51
2019-05-23T21:11:39.986Z,16.48
2019-05-23T21:14:11.841Z,16.39
2019-05-23T21:16:43.701Z,16.30
2019-05-23T21:19:15.495Z,16.31
2019-05-23T21:21:47.365Z,16.32
2019-05-23T21:24:19.438Z,16.38
2019-05-23T21:26:52.077Z,16.33
2019-05-23T21:29:24.047Z,16.35
2019-05-23T21:31:55.916Z,16.25
2019-05-23T21:34:27.768Z,16.32
2019-05-23T21:36:59.625Z,16.31
2019-05-23T21:39:31.482Z,16.31
2019-05-23T21:42:03.800Z,16.29
2019-05-23T21:44:35.656Z,16.19
2019-05-23T21:47:10.457Z,16.09
2019-05-23T21:49:42.414Z,16.12
2019-05-23T21:52:14.344Z,16.14
2019-05-23T21:54:46.133Z,16.16
2019-05-23T21:57:17.926Z,16.13
2019-05-23T21:59:49.815Z,16.10
2019-05-23T22:02:30.510Z,16.06
2019-05-23T22:05:16.221Z,15.95
2019-05-23T22:07:48.068Z,15.78
2019-05-23T22:10:19.867Z,15.72
2019-05-23T22:13:04.040Z,15.55
2019-05-23T22:15:37.562Z,15.36
2019-05-23T22:18:09.409Z,15.40
2019-05-23T22:20:41.267Z,15.30
2019-05-23T22:23:14.308Z,15.29
2019-05-23T22:25:46.174Z,15.21
2019-05-23T22:28:18.096Z,15.15
2019-05-23T22:30:49.934Z,15.44
2019-05-23T22:33:23.764Z,15.30
2019-05-23T22:35:55.624Z,15.01
2019-05-23T22:38:27.476Z,14.93
2019-05-23T22:40:59.272Z,14.88
2019-05-23T22:43:31.198Z,14.82
2019-05-23T22:46:03.048Z,14.69
2019-05-23T22:48:34.912Z,14.63
2019-05-23T22:51:06.763Z,14.67
2019-05-23T22:53:38.611Z,14.67
2019-05-23T22:56:10.475Z,14.48
2019-05-23T22:58:42.307Z,14.37
2019-05-23T23:01:14.291Z,14.37
2019-05-23T23:03:46.174Z,14.43
2019-05-23T23:06:18.720Z,14.38
2019-05-23T23:08:51.583Z,14.41
2019-05-23T23:11:23.719Z,14.41
2019-05-23T23:13:55.773Z,14.38
2019-05-23T23:16:27.618Z,14.28
2019-05-23T23:18:59.584Z,14.02
2019-05-23T23:21:31.635Z,14.02
2019-05-23T23:24:03.408Z,14.13
2019-05-23T23:26:35.378Z,14.17
2019-05-23T23:29:07.541Z,14.08
2019-05-23T23:31:39.519Z,14.07
2019-05-23T23:34:11.577Z,14.05
2019-05-23T23:36:43.357Z,14.07
2019-05-23T23:39:15.211Z,14.01
2019-05-23T23:41:47.075Z,14.01
2019-05-23T23:44:20.824Z,14.03
2019-05-23T23:47:10.302Z,14.03
2019-05-23T23:49:59.428Z,13.95
2019-05-23T23:52:48.832Z,13.87
2019-05-23T23:55:38.138Z,13.79
2019-05-23T23:58:09.428Z,13.63
